Time;durP1;ratioP1;P1;durP2;ratioP2;P2;SDS_P1;SDS_P2;PMS_P1;PMS_P2;Temp;Humidity;BMP_temperature;BMP_pressure;BME280_temperature;BME280_humidity;BME280_pressure;Samples;Min_cycle;Max_cycle;Signal;HPM_P1;HPM_P2
2021/03/13 00:01:40;;;;;;;9.88;9.27;;;4.20;99.90;;;;;;5063175;28;20441;-73
2021/03/13 00:04:05;;;;;;;7.75;7.35;;;4.20;99.90;;;;;;5066523;28;20033;-72
2021/03/13 00:06:31;;;;;;;13.35;12.75;;;4.10;99.90;;;;;;5060953;28;20027;-74
2021/03/13 00:08:56;;;;;;;8.52;8.13;;;4.20;99.90;;;;;;5059532;28;20388;-74
2021/03/13 00:11:22;;;;;;;9.15;8.68;;;4.10;99.90;;;;;;5062031;28;20023;-72
2021/03/13 00:13:47;;;;;;;12.00;11.48;;;4.20;99.90;;;;;;5066201;28;20086;-73
2021/03/13 00:16:13;;;;;;;14.15;13.55;;;4.10;99.90;;;;;;5061787;28;20104;-73
2021/03/13 00:18:38;;;;;;;10.48;9.88;;;4.10;99.90;;;;;;5059101;28;20078;-74
2021/03/13 00:21:05;;;;;;;8.75;8.25;;;4.10;99.90;;;;;;5062462;28;20025;-73
2021/03/13 00:23:31;;;;;;;9.75;9.05;;;4.10;99.90;;;;;;5068289;28;20020;-74
2021/03/13 00:25:57;;;;;;;10.80;10.30;;;4.10;99.90;;;;;;5072571;28;20784;-75
2021/03/13 00:28:22;;;;;;;9.38;8.88;;;4.10;99.90;;;;;;5057702;28;20496;-75
2021/03/13 00:30:49;;;;;;;9.38;8.98;;;4.10;99.90;;;;;;5062477;28;20108;-74
2021/03/13 00:33:17;;;;;;;8.80;8.13;;;4.20;99.90;;;;;;5064710;28;20641;-73
2021/03/13 00:35:45;;;;;;;13.32;12.63;;;4.20;99.90;;;;;;5060962;28;20028;-74
2021/03/13 00:38:11;;;;;;;16.15;15.38;;;4.10;99.90;;;;;;5057705;28;20056;-75
2021/03/13 00:40:38;;;;;;;13.77;13.07;;;4.30;99.90;;;;;;5061934;28;20522;-73
2021/03/13 00:43:06;;;;;;;11.40;10.88;;;4.20;99.90;;;;;;5065555;28;20095;-73
2021/03/13 00:45:33;;;;;;;9.90;9.48;;;4.20;99.90;;;;;;5061371;28;20505;-73
2021/03/13 00:47:59;;;;;;;16.30;15.65;;;4.10;99.90;;;;;;5058627;28;20032;-73
2021/03/13 00:50:28;;;;;;;13.18;12.48;;;4.20;99.90;;;;;;5060045;28;20066;-73
2021/03/13 00:52:54;;;;;;;12.63;11.98;;;4.30;99.90;;;;;;5063175;28;20033;-73
2021/03/13 00:55:20;;;;;;;19.63;18.75;;;4.30;99.90;;;;;;5061877;28;20073;-71
2021/03/13 00:57:45;;;;;;;12.70;12.00;;;4.30;99.90;;;;;;5066264;28;20037;-73
2021/03/13 01:00:15;;;;;;;18.30;17.30;;;4.30;99.90;;;;;;5062851;28;20486;-72
2021/03/13 01:02:41;;;;;;;12.10;11.50;;;4.30;99.90;;;;;;5056950;28;20027;-71
2021/03/13 01:05:08;;;;;;;16.23;15.35;;;4.40;99.90;;;;;;5060619;28;20021;-72
2021/03/13 01:07:35;;;;;;;11.05;10.38;;;4.30;99.90;;;;;;5063845;28;20021;-73
2021/03/13 01:10:07;;;;;;;10.98;10.43;;;4.30;99.90;;;;;;5062321;28;20035;-72
2021/03/13 01:12:33;;;;;;;11.23;10.52;;;4.40;99.90;;;;;;5065479;28;20025;-72
2021/03/13 01:14:58;;;;;;;11.43;10.73;;;4.40;99.90;;;;;;5064499;28;20036;-73
2021/03/13 01:17:24;;;;;;;11.23;10.60;;;4.40;99.90;;;;;;5058268;28;20025;-72
2021/03/13 01:19:49;;;;;;;15.90;15.02;;;4.50;99.90;;;;;;5059324;28;20033;-72
2021/03/13 01:22:15;;;;;;;12.20;11.48;;;4.50;99.90;;;;;;5063723;28;20538;-73
2021/03/13 01:24:41;;;;;;;16.33;15.43;;;4.40;99.90;;;;;;5063603;28;20035;-73
2021/03/13 01:27:09;;;;;;;17.60;16.52;;;4.30;99.90;;;;;;5044795;28;20020;-73
2021/03/13 01:29:35;;;;;;;12.75;12.00;;;4.40;99.90;;;;;;5058325;28;20044;-72
2021/03/13 01:32:04;;;;;;;13.85;13.13;;;4.30;99.90;;;;;;5044753;28;20025;-72
2021/03/13 01:34:31;;;;;;;12.10;11.32;;;4.30;99.90;;;;;;5058218;28;20025;-72
2021/03/13 01:36:57;;;;;;;18.48;17.58;;;4.40;99.90;;;;;;5064632;28;20332;-72
2021/03/13 01:39:22;;;;;;;12.65;11.95;;;4.40;99.90;;;;;;5064839;28;20095;-72
2021/03/13 01:41:48;;;;;;;13.77;13.07;;;4.40;99.90;;;;;;5058010;28;20090;-72
2021/03/13 01:44:13;;;;;;;12.70;11.98;;;4.40;99.90;;;;;;5058136;28;20029;-72
2021/03/13 01:46:39;;;;;;;12.45;11.82;;;4.40;99.90;;;;;;5063557;28;20025;-73
2021/03/13 01:49:05;;;;;;;11.50;10.90;;;4.40;99.90;;;;;;5063182;28;20025;-73
2021/03/13 01:51:31;;;;;;;10.40;9.70;;;4.30;99.90;;;;;;5064615;28;20031;-73
2021/03/13 01:53:57;;;;;;;12.70;11.95;;;4.40;99.90;;;;;;5064747;28;20103;-73
2021/03/13 01:56:22;;;;;;;17.08;16.08;;;4.40;99.90;;;;;;5058015;28;21131;-72
2021/03/13 01:58:48;;;;;;;12.75;12.05;;;4.40;99.90;;;;;;5058209;28;20423;-72
2021/03/13 02:01:13;;;;;;;13.48;12.82;;;4.40;99.90;;;;;;5064443;28;20025;-73
2021/03/13 02:03:40;;;;;;;14.40;13.55;;;4.40;99.90;;;;;;5063208;28;20024;-72
2021/03/13 02:06:06;;;;;;;12.10;11.27;;;4.40;99.90;;;;;;5061569;28;20024;-72
2021/03/13 02:08:46;;;;;;;19.58;18.58;;;4.40;99.90;;;;;;5075099;28;20093;-73
2021/03/13 02:11:36;;;;;;;14.02;13.32;;;4.50;99.90;;;;;;5067486;28;20039;-74
2021/03/13 02:14:23;;;;;;;23.48;22.27;;;4.50;99.90;;;;;;5073862;28;20121;-75
2021/03/13 02:17:16;;;;;;;15.45;14.50;;;4.50;99.90;;;;;;5074154;28;20032;-73
2021/03/13 02:19:53;;;;;;;15.25;14.52;;;4.50;99.90;;;;;;5065113;28;20020;-76
2021/03/13 02:22:22;;;;;;;15.68;14.68;;;4.50;99.90;;;;;;5075189;28;20021;-74
2021/03/13 02:25:11;;;;;;;19.17;18.23;;;4.50;99.90;;;;;;5060608;28;20025;-73
2021/03/13 02:27:44;;;;;;;19.25;18.15;;;4.50;99.90;;;;;;5065311;28;20379;-72
2021/03/13 02:30:21;;;;;;;25.45;24.25;;;4.50;99.90;;;;;;5061638;28;20512;-72
2021/03/13 02:33:08;;;;;;;16.13;15.25;;;4.50;99.90;;;;;;5061468;28;20029;-72
2021/03/13 02:35:40;;;;;;;23.35;22.17;;;4.50;99.90;;;;;;5034897;28;20032;-72
2021/03/13 02:38:21;;;;;;;16.15;15.20;;;4.50;99.90;;;;;;5065147;28;20025;-72
2021/03/13 02:40:48;;;;;;;13.45;12.70;;;4.50;99.90;;;;;;5066833;28;20073;-72
2021/03/13 02:43:16;;;;;;;13.60;12.88;;;4.60;99.90;;;;;;5061198;28;20100;-73
2021/03/13 02:45:48;;;;;;;15.85;14.95;;;4.50;99.90;;;;;;5074569;28;20099;-73
2021/03/13 02:48:17;;;;;;;13.60;12.88;;;4.50;99.90;;;;;;5074566;28;20332;-73
2021/03/13 02:50:43;;;;;;;14.57;13.82;;;4.60;99.90;;;;;;5059851;28;20053;-74
2021/03/13 02:53:10;;;;;;;13.45;12.68;;;4.60;99.90;;;;;;5062205;28;20406;-73
2021/03/13 02:55:36;;;;;;;15.95;15.07;;;4.60;99.90;;;;;;5060984;28;20035;-73
2021/03/13 02:58:04;;;;;;;10.10;9.60;;;4.50;99.90;;;;;;5066000;28;20075;-72
2021/03/13 03:00:39;;;;;;;12.63;11.80;;;4.60;99.90;;;;;;5066312;28;20086;-71
2021/03/13 03:03:05;;;;;;;18.55;17.65;;;4.50;99.90;;;;;;5064171;28;20095;-72
2021/03/13 03:05:31;;;;;;;14.48;13.57;;;4.50;99.90;;;;;;5072754;28;20489;-72
2021/03/13 03:08:02;;;;;;;12.32;11.63;;;4.50;99.90;;;;;;5064422;28;20492;-72
2021/03/13 03:10:31;;;;;;;13.32;12.68;;;4.50;99.90;;;;;;5053828;28;20508;-71
2021/03/13 03:12:57;;;;;;;14.23;13.25;;;4.50;99.90;;;;;;5064351;28;20099;-72
2021/03/13 03:15:26;;;;;;;13.77;13.00;;;4.50;99.90;;;;;;5073498;28;20033;-71
2021/03/13 03:17:54;;;;;;;13.95;13.05;;;4.50;99.90;;;;;;5073342;28;20524;-72
2021/03/13 03:20:20;;;;;;;13.65;13.00;;;4.60;99.90;;;;;;5073662;28;20471;-72
2021/03/13 03:22:46;;;;;;;14.50;13.80;;;4.50;99.90;;;;;;5073436;28;20028;-72
2021/03/13 03:25:12;;;;;;;23.50;22.45;;;4.50;99.90;;;;;;5069376;28;20025;-72
2021/03/13 03:27:50;;;;;;;13.63;12.93;;;4.60;99.90;;;;;;5053668;28;20047;-72
2021/03/13 03:30:36;;;;;;;12.73;12.15;;;4.60;99.90;;;;;;5053558;28;20471;-72
2021/03/13 03:33:02;;;;;;;14.75;14.05;;;4.60;99.90;;;;;;5067647;28;20045;-72
2021/03/13 03:35:28;;;;;;;12.90;12.20;;;4.60;99.90;;;;;;5073431;28;20106;-72
2021/03/13 03:37:56;;;;;;;13.57;12.68;;;4.60;99.90;;;;;;5073445;28;20031;-72
2021/03/13 03:40:24;;;;;;;16.60;15.65;;;4.60;99.90;;;;;;5073250;28;20024;-71
2021/03/13 03:42:57;;;;;;;13.57;12.73;;;4.60;99.90;;;;;;5073074;28;20012;-72
2021/03/13 03:45:24;;;;;;;14.25;13.50;;;4.50;99.90;;;;;;5072358;28;20402;-72
2021/03/13 03:47:50;;;;;;;11.15;10.55;;;4.60;99.90;;;;;;5057048;28;20017;-71
2021/03/13 03:50:19;;;;;;;15.07;14.40;;;4.70;99.90;;;;;;5062555;28;20174;-72
2021/03/13 03:52:54;;;;;;;14.77;14.13;;;4.60;99.90;;;;;;5073009;28;20111;-71
2021/03/13 03:55:22;;;;;;;13.48;12.75;;;4.60;99.90;;;;;;5073213;28;20102;-72
2021/03/13 03:57:50;;;;;;;11.98;11.35;;;4.60;99.90;;;;;;5072934;28;20036;-72
2021/03/13 04:00:18;;;;;;;14.65;13.85;;;4.60;99.90;;;;;;5072833;28;20119;-72
2021/03/13 04:02:44;;;;;;;11.43;10.77;;;4.60;99.90;;;;;;5053957;28;20387;-71
2021/03/13 04:05:11;;;;;;;15.13;14.38;;;4.60;99.90;;;;;;5051888;28;20025;-72
2021/03/13 04:07:38;;;;;;;13.93;13.13;;;4.60;99.90;;;;;;5071275;28;20020;-72
2021/03/13 04:10:06;;;;;;;13.77;13.02;;;4.60;99.90;;;;;;5060632;28;20024;-72
2021/03/13 04:12:37;;;;;;;12.55;11.82;;;4.60;99.90;;;;;;5058242;28;20071;-72
2021/03/13 04:15:06;;;;;;;12.90;12.23;;;4.60;99.90;;;;;;5072705;28;20091;-72
2021/03/13 04:17:33;;;;;;;12.02;11.25;;;4.60;99.90;;;;;;5072608;28;20093;-72
2021/03/13 04:19:58;;;;;;;12.43;11.82;;;4.60;99.90;;;;;;5071121;28;20032;-72
2021/03/13 04:22:24;;;;;;;17.77;16.63;;;4.50;99.90;;;;;;5072299;28;20024;-72
2021/03/13 04:24:51;;;;;;;22.42;21.20;;;4.50;99.90;;;;;;5071399;28;20055;-72
2021/03/13 04:27:20;;;;;;;16.27;15.38;;;4.60;99.90;;;;;;5060104;28;20391;-72
2021/03/13 04:29:47;;;;;;;16.50;15.50;;;4.60;99.90;;;;;;5072485;28;20028;-72
2021/03/13 04:32:15;;;;;;;15.82;15.00;;;4.50;99.90;;;;;;5067666;28;20039;-73
2021/03/13 04:34:42;;;;;;;13.20;12.40;;;4.50;99.90;;;;;;5070975;28;20032;-73
2021/03/13 04:37:09;;;;;;;24.85;23.65;;;4.50;99.90;;;;;;5072299;28;20036;-72
2021/03/13 04:39:35;;;;;;;17.73;16.73;;;4.50;99.90;;;;;;5072009;28;20382;-72
2021/03/13 04:42:00;;;;;;;19.42;18.23;;;4.50;99.90;;;;;;5071908;28;20025;-72
2021/03/13 04:44:27;;;;;;;16.42;15.57;;;4.50;99.90;;;;;;5070852;28;20023;-72
2021/03/13 04:46:53;;;;;;;17.02;16.23;;;4.50;99.90;;;;;;5063573;28;20025;-73
2021/03/13 04:49:19;;;;;;;18.83;17.85;;;4.50;99.90;;;;;;5050717;28;20028;-73
2021/03/13 04:51:45;;;;;;;21.10;19.92;;;4.50;99.90;;;;;;5059396;28;20055;-73
2021/03/13 04:54:13;;;;;;;12.93;11.88;;;4.50;99.90;;;;;;5071936;28;20048;-73
2021/03/13 04:56:41;;;;;;;15.40;14.48;;;4.50;99.90;;;;;;5061605;28;20033;-73
2021/03/13 04:59:07;;;;;;;16.65;15.77;;;4.50;99.90;;;;;;5054331;28;20027;-72
2021/03/13 05:01:33;;;;;;;17.63;16.63;;;4.50;99.90;;;;;;5071691;28;20025;-73
2021/03/13 05:03:59;;;;;;;12.43;11.63;;;4.50;99.90;;;;;;5071818;28;20017;-73
2021/03/13 05:06:24;;;;;;;16.75;15.70;;;4.50;99.90;;;;;;5070561;28;20021;-72
2021/03/13 05:08:50;;;;;;;15.75;14.85;;;4.50;99.90;;;;;;5070410;28;20029;-73
2021/03/13 05:11:16;;;;;;;13.25;12.45;;;4.50;99.90;;;;;;5070310;28;20024;-72
2021/03/13 05:13:42;;;;;;;15.85;14.82;;;4.60;99.90;;;;;;5069706;28;20082;-73
2021/03/13 05:16:07;;;;;;;14.70;13.90;;;4.60;99.90;;;;;;5060385;28;20036;-73
2021/03/13 05:18:33;;;;;;;14.63;13.82;;;4.60;99.90;;;;;;5071614;28;20467;-73
2021/03/13 05:20:59;;;;;;;18.15;17.05;;;4.60;99.90;;;;;;5062840;28;20391;-72
2021/03/13 05:23:24;;;;;;;18.73;17.38;;;4.60;99.90;;;;;;5067039;28;20029;-72
2021/03/13 05:25:50;;;;;;;33.65;31.17;;;4.60;99.90;;;;;;5053338;28;20431;-72
2021/03/13 05:28:15;;;;;;;26.92;25.40;;;4.60;99.90;;;;;;5061734;28;20036;-72
2021/03/13 05:30:41;;;;;;;18.02;16.92;;;4.60;99.90;;;;;;5062867;28;20029;-72
2021/03/13 05:33:07;;;;;;;18.48;16.95;;;4.70;99.90;;;;;;5067020;28;20079;-73
2021/03/13 05:35:33;;;;;;;18.52;17.13;;;4.70;99.90;;;;;;5071602;28;20028;-73
2021/03/13 05:37:58;;;;;;;18.52;17.27;;;4.70;99.90;;;;;;5057270;28;20032;-73
2021/03/13 05:40:24;;;;;;;23.98;21.98;;;4.70;99.90;;;;;;5072833;28;20459;-72
2021/03/13 05:42:50;;;;;;;16.25;15.25;;;4.70;99.90;;;;;;5060417;28;20025;-72
2021/03/13 05:45:16;;;;;;;13.70;12.85;;;4.70;99.90;;;;;;5064329;28;20048;-72
2021/03/13 05:47:42;;;;;;;17.65;16.60;;;4.70;99.90;;;;;;5075714;28;20055;-73
2021/03/13 05:50:11;;;;;;;14.98;14.18;;;4.60;99.90;;;;;;5067172;28;20029;-73
2021/03/13 05:52:38;;;;;;;16.23;15.23;;;4.70;99.90;;;;;;5057362;28;20028;-73
2021/03/13 05:55:06;;;;;;;15.07;14.10;;;4.70;99.90;;;;;;5076058;28;20483;-73
2021/03/13 05:57:32;;;;;;;16.80;15.55;;;4.70;99.90;;;;;;5073251;28;20044;-73
2021/03/13 05:59:57;;;;;;;14.23;13.50;;;4.60;99.90;;;;;;5055373;28;20063;-73
2021/03/13 06:02:23;;;;;;;23.92;22.80;;;4.70;99.90;;;;;;5067345;28;20051;-73
2021/03/13 06:04:53;;;;;;;17.92;16.85;;;4.60;99.90;;;;;;5055284;28;20368;-73
2021/03/13 06:07:21;;;;;;;17.95;16.90;;;4.60;99.90;;;;;;5068624;28;20032;-75
2021/03/13 06:09:57;;;;;;;16.65;15.73;;;4.70;99.90;;;;;;5064041;28;20067;-73
2021/03/13 06:12:23;;;;;;;17.67;16.67;;;4.70;99.90;;;;;;5057298;28;20453;-73
2021/03/13 06:14:50;;;;;;;18.70;17.40;;;4.70;99.90;;;;;;5055366;28;20394;-73
2021/03/13 06:17:16;;;;;;;24.85;23.52;;;4.80;99.90;;;;;;5053904;28;20025;-73
2021/03/13 06:19:58;;;;;;;18.38;17.27;;;4.80;99.90;;;;;;5066502;28;20025;-73
2021/03/13 06:22:40;;;;;;;17.45;16.35;;;4.80;99.90;;;;;;5040188;28;20390;-73
2021/03/13 06:25:16;;;;;;;14.70;13.90;;;4.80;99.90;;;;;;5066997;28;20017;-72
2021/03/13 06:27:42;;;;;;;16.85;15.82;;;4.80;99.90;;;;;;5053757;28;20045;-73
2021/03/13 06:30:09;;;;;;;22.55;21.27;;;4.80;99.90;;;;;;5053858;28;20438;-73
2021/03/13 06:32:36;;;;;;;20.63;19.52;;;4.80;99.90;;;;;;5054423;28;20412;-73
2021/03/13 06:35:23;;;;;;;27.60;26.15;;;4.90;99.90;;;;;;5054620;28;20025;-73
2021/03/13 06:37:48;;;;;;;;;;;4.90;99.90;;;;;;5067294;28;20052;-73
2021/03/13 06:40:35;;;;;;;16.85;15.95;;;4.90;99.90;;;;;;5061046;28;19963;-73
2021/03/13 06:43:22;;;;;;;17.85;16.75;;;4.90;99.90;;;;;;5070462;28;20029;-73
2021/03/13 06:46:02;;;;;;;22.88;21.52;;;5.00;99.90;;;;;;5068056;28;20068;-73
2021/03/13 06:48:29;;;;;;;19.23;18.17;;;5.00;99.90;;;;;;5066762;28;20017;-73
2021/03/13 06:51:13;;;;;;;15.88;14.80;;;5.10;99.90;;;;;;5066421;28;20051;-73
2021/03/13 06:53:39;;;;;;;17.15;16.02;;;5.20;99.90;;;;;;5054371;28;20567;-73
2021/03/13 06:56:12;;;;;;;17.17;15.98;;;5.20;99.90;;;;;;5067495;28;20065;-73
2021/03/13 06:58:40;;;;;;;17.40;16.30;;;5.20;99.90;;;;;;5053091;28;20059;-73
2021/03/13 07:01:07;;;;;;;16.90;15.93;;;5.20;99.90;;;;;;5052651;28;20112;-73
2021/03/13 07:03:33;;;;;;;15.98;14.73;;;5.20;99.90;;;;;;5066945;28;20025;-73
2021/03/13 07:05:59;;;;;;;21.77;20.23;;;5.30;99.90;;;;;;5067604;28;20028;-73
2021/03/13 07:08:25;;;;;;;15.85;15.02;;;5.30;99.90;;;;;;5067256;28;20020;-73
2021/03/13 07:11:10;;;;;;;16.42;15.48;;;5.30;99.90;;;;;;5067512;28;20028;-74
2021/03/13 07:13:37;;;;;;;16.92;15.95;;;5.40;99.90;;;;;;5052209;28;20031;-73
2021/03/13 07:16:22;;;;;;;17.30;16.30;;;5.40;99.90;;;;;;5053883;28;20067;-73
2021/03/13 07:18:49;;;;;;;15.20;14.30;;;5.40;99.90;;;;;;5072324;28;20028;-73
2021/03/13 07:21:15;;;;;;;15.63;14.63;;;5.40;99.90;;;;;;5073539;28;20059;-73
2021/03/13 07:23:43;;;;;;;15.88;14.68;;;5.50;99.90;;;;;;5055095;28;20495;-73
2021/03/13 07:26:10;;;;;;;14.60;13.68;;;5.50;99.90;;;;;;5053778;28;20067;-73
2021/03/13 07:28:40;;;;;;;15.70;14.70;;;5.60;99.90;;;;;;5053629;28;20645;-73
2021/03/13 07:31:09;;;;;;;19.92;18.77;;;5.60;99.90;;;;;;5053410;28;20036;-74
2021/03/13 07:33:37;;;;;;;16.98;15.80;;;5.70;99.90;;;;;;5059188;28;20033;-73
2021/03/13 07:36:03;;;;;;;19.67;18.52;;;5.70;99.90;;;;;;5059498;28;20391;-73
2021/03/13 07:38:32;;;;;;;10.95;10.20;;;5.70;99.90;;;;;;5053483;28;20088;-73
2021/03/13 07:40:58;;;;;;;14.05;12.93;;;5.80;99.90;;;;;;5053281;28;20028;-73
2021/03/13 07:43:24;;;;;;;17.20;16.08;;;5.80;99.90;;;;;;5058469;28;20021;-73
2021/03/13 07:45:52;;;;;;;13.27;12.23;;;5.70;99.90;;;;;;5060547;28;20036;-73
2021/03/13 07:48:18;;;;;;;14.05;12.95;;;5.70;99.90;;;;;;5033190;28;20108;-74
2021/03/13 07:50:48;;;;;;;12.00;10.88;;;5.70;99.90;;;;;;5046390;28;20032;-74
2021/03/13 07:53:15;;;;;;;11.57;10.57;;;5.80;99.90;;;;;;5047496;28;20463;-73
2021/03/13 07:55:42;;;;;;;18.23;17.05;;;5.80;99.90;;;;;;5059426;28;20044;-74
2021/03/13 07:58:09;;;;;;;15.13;14.13;;;5.80;99.90;;;;;;5053143;28;20047;-73
2021/03/13 08:00:42;;;;;;;13.50;12.38;;;5.80;99.90;;;;;;5066608;28;20031;-74
2021/03/13 08:03:26;;;;;;;20.83;19.73;;;5.90;99.90;;;;;;5052488;28;20479;-73
2021/03/13 08:05:56;;;;;;;13.25;12.25;;;5.90;99.90;;;;;;5057017;28;20543;-73
2021/03/13 08:08:42;;;;;;;19.48;18.10;;;5.90;99.90;;;;;;5061713;28;20088;-73
2021/03/13 08:11:16;;;;;;;9.93;8.73;;;6.00;99.90;;;;;;5046121;28;20434;-73
2021/03/13 08:13:41;;;;;;;14.65;13.73;;;6.00;99.90;;;;;;5057921;28;20045;-74
2021/03/13 08:16:42;;;;;;;10.57;9.80;;;6.10;99.90;;;;;;5059555;28;20397;-73
2021/03/13 08:19:30;;;;;;;9.98;9.15;;;6.10;99.90;;;;;;5052430;28;20111;-74
2021/03/13 08:22:21;;;;;;;17.23;16.08;;;6.10;99.90;;;;;;5068625;28;20110;-73
2021/03/13 08:24:53;;;;;;;12.73;11.82;;;6.10;99.90;;;;;;5059822;28;20353;-72
2021/03/13 08:27:38;;;;;;;10.40;9.50;;;6.10;99.90;;;;;;5051238;28;20077;-74
2021/03/13 08:30:25;;;;;;;9.60;8.88;;;6.10;99.90;;;;;;5065781;28;20497;-73
2021/03/13 08:33:09;;;;;;;12.98;11.95;;;6.10;99.90;;;;;;5064424;28;20039;-74
2021/03/13 08:35:44;;;;;;;9.50;8.90;;;6.10;99.90;;;;;;5050239;28;20098;-73
2021/03/13 08:38:11;;;;;;;12.45;10.98;;;6.10;99.90;;;;;;5055493;28;20544;-73
2021/03/13 08:40:45;;;;;;;16.45;15.48;;;6.10;99.90;;;;;;5052202;28;20021;-73
2021/03/13 08:43:40;;;;;;;12.27;11.27;;;6.20;99.90;;;;;;5065579;28;20036;-74
2021/03/13 08:46:44;;;;;;;10.55;9.65;;;6.20;99.90;;;;;;5053384;28;20017;-73
2021/03/13 08:49:11;;;;;;;11.40;10.60;;;6.20;99.90;;;;;;5057861;28;20017;-73
2021/03/13 08:51:37;;;;;;;9.43;8.73;;;6.20;99.90;;;;;;5051976;28;20061;-73
2021/03/13 08:54:03;;;;;;;10.85;9.82;;;6.20;99.90;;;;;;5052015;28;20518;-73
2021/03/13 08:56:39;;;;;;;11.55;10.68;;;6.30;99.90;;;;;;5051753;28;20029;-73
2021/03/13 08:59:19;;;;;;;9.95;9.20;;;6.40;99.90;;;;;;5054091;28;20021;-73
2021/03/13 09:02:05;;;;;;;7.00;5.45;;;6.50;99.90;;;;;;5052095;28;20025;-74
2021/03/13 09:04:32;;;;;;;7.55;7.05;;;6.50;99.90;;;;;;5050213;28;20041;-73
2021/03/13 09:07:02;;;;;;;13.32;12.57;;;6.60;99.90;;;;;;5051789;28;20438;-73
2021/03/13 09:09:30;;;;;;;7.70;7.20;;;6.60;99.90;;;;;;5070296;28;20031;-73
2021/03/13 09:12:06;;;;;;;13.85;12.95;;;6.70;99.90;;;;;;5056873;28;20498;-73
2021/03/13 09:14:32;;;;;;;;;;;6.70;99.90;;;;;;5050048;28;20033;-74
2021/03/13 09:17:05;;;;;;;8.10;7.45;;;6.70;99.90;;;;;;5050429;28;19928;-74
2021/03/13 09:19:31;;;;;;;11.05;10.38;;;6.70;99.90;;;;;;5051589;28;20123;-73
2021/03/13 09:21:57;;;;;;;8.02;7.32;;;6.70;99.90;;;;;;5065012;28;20150;-73
2021/03/13 09:24:24;;;;;;;5.47;4.97;;;6.70;99.90;;;;;;5051729;28;20029;-73
2021/03/13 09:27:02;;;;;;;5.82;4.57;;;6.80;99.90;;;;;;5040618;28;20025;-74
2021/03/13 09:29:31;;;;;;;5.60;4.80;;;6.80;99.90;;;;;;5059222;28;20404;-73
2021/03/13 09:32:23;;;;;;;6.35;5.07;;;6.90;99.90;;;;;;5059869;28;20471;-73
2021/03/13 09:34:51;;;;;;;5.45;4.85;;;6.90;99.90;;;;;;5053568;28;20047;-73
2021/03/13 09:37:41;;;;;;;4.38;3.95;;;6.90;99.90;;;;;;5071579;28;20105;-75
2021/03/13 09:40:16;;;;;;;4.45;3.92;;;6.90;99.90;;;;;;5057737;28;20027;-74
2021/03/13 09:42:44;;;;;;;5.18;4.40;;;7.00;99.90;;;;;;5070832;28;20021;-73
2021/03/13 09:45:13;;;;;;;5.38;3.35;;;7.00;99.90;;;;;;5058166;28;20059;-73
2021/03/13 09:47:55;;;;;;;7.10;5.53;;;7.00;99.90;;;;;;5058045;28;20021;-73
2021/03/13 09:50:25;;;;;;;5.55;4.88;;;7.00;99.90;;;;;;5052589;28;20021;-73
2021/03/13 09:52:52;;;;;;;4.35;3.95;;;6.90;99.90;;;;;;5066587;28;20029;-74
2021/03/13 09:55:26;;;;;;;6.93;6.30;;;7.40;99.90;;;;;;5060976;28;20021;-73
2021/03/13 09:57:56;;;;;;;4.65;4.25;;;7.20;99.90;;;;;;5063047;28;20041;-73
2021/03/13 10:00:30;;;;;;;7.97;4.85;;;7.40;99.90;;;;;;5062141;28;20037;-74
2021/03/13 10:02:58;;;;;;;6.63;4.88;;;7.50;99.90;;;;;;5062637;28;20022;-73
2021/03/13 10:05:27;;;;;;;4.45;3.17;;;7.60;99.90;;;;;;5064955;28;20055;-73
2021/03/13 10:07:53;;;;;;;3.15;2.70;;;7.80;99.90;;;;;;5036910;28;20017;-73
2021/03/13 10:10:21;;;;;;;8.43;7.85;;;7.80;99.90;;;;;;5049637;28;20501;-73
2021/03/13 10:12:49;;;;;;;3.13;2.55;;;8.00;99.90;;;;;;5056835;28;20119;-73
2021/03/13 10:15:21;;;;;;;3.80;2.80;;;8.40;99.90;;;;;;5056471;28;20048;-73
2021/03/13 10:18:07;;;;;;;4.90;4.50;;;8.20;99.90;;;;;;5061185;28;20036;-73
2021/03/13 10:20:38;;;;;;;3.10;2.10;;;8.20;99.90;;;;;;5067742;28;20081;-73
2021/03/13 10:23:13;;;;;;;9.98;9.15;;;8.10;99.90;;;;;;5057795;28;20025;-73
2021/03/13 10:25:41;;;;;;;2.30;2.10;;;8.40;99.90;;;;;;5052448;28;20033;-73
2021/03/13 10:28:13;;;;;;;2.42;2.22;;;8.50;99.90;;;;;;5053708;28;20415;-73
2021/03/13 10:30:42;;;;;;;3.08;2.55;;;8.40;99.90;;;;;;5052797;28;20495;-73
2021/03/13 10:33:08;;;;;;;5.40;5.00;;;8.50;99.90;;;;;;5062136;28;20158;-75
2021/03/13 10:35:34;;;;;;;3.75;1.90;;;8.50;99.90;;;;;;5062006;28;20028;-73
2021/03/13 10:38:22;;;;;;;3.20;2.50;;;8.80;99.90;;;;;;5059987;28;20040;-73
2021/03/13 10:40:49;;;;;;;2.70;2.20;;;8.70;99.90;;;;;;5061788;28;20038;-73
2021/03/13 10:43:32;;;;;;;3.38;2.25;;;8.70;99.90;;;;;;5066710;28;20032;-73
2021/03/13 10:45:57;;;;;;;2.15;1.95;;;8.70;99.90;;;;;;5066814;28;20103;-73
2021/03/13 10:48:46;;;;;;;5.43;4.47;;;8.80;99.90;;;;;;5062325;28;20048;-73
2021/03/13 10:51:19;;;;;;;5.07;2.80;;;8.70;99.90;;;;;;5051843;28;20566;-73
2021/03/13 10:53:44;;;;;;;2.58;1.90;;;8.90;99.90;;;;;;5054166;28;20083;-73
2021/03/13 10:56:11;;;;;;;4.45;2.78;;;9.00;99.90;;;;;;5066351;28;20025;-73
2021/03/13 10:58:51;;;;;;;4.30;1.90;;;8.80;99.90;;;;;;5066107;28;20039;-73
2021/03/13 11:01:21;;;;;;;5.40;5.03;;;8.90;99.90;;;;;;5041626;28;20064;-73
2021/03/13 11:03:48;;;;;;;3.35;2.50;;;9.00;99.90;;;;;;5054121;28;20017;-73
2021/03/13 11:06:26;;;;;;;1.95;1.77;;;9.10;99.90;;;;;;5064672;28;20028;-73
2021/03/13 11:08:52;;;;;;;3.67;3.42;;;9.00;99.90;;;;;;5066415;28;20044;-73
2021/03/13 11:11:19;;;;;;;2.00;1.77;;;9.00;99.90;;;;;;5062016;28;20032;-73
2021/03/13 11:13:45;;;;;;;3.13;2.83;;;8.90;99.90;;;;;;5059145;28;20028;-73
2021/03/13 11:16:10;;;;;;;2.47;2.00;;;9.00;99.90;;;;;;5062648;28;20025;-73
2021/03/13 11:18:36;;;;;;;10.60;10.00;;;9.00;99.90;;;;;;5065824;28;20029;-73
2021/03/13 11:21:02;;;;;;;2.13;1.75;;;8.80;99.90;;;;;;5062027;28;20028;-73
2021/03/13 11:23:27;;;;;;;3.20;2.20;;;8.80;99.90;;;;;;5060060;28;20028;-73
2021/03/13 11:25:53;;;;;;;3.05;2.05;;;8.90;99.90;;;;;;5052895;28;20029;-73
2021/03/13 11:28:22;;;;;;;2.28;1.83;;;8.90;99.90;;;;;;5061511;28;20387;-73
2021/03/13 11:30:48;;;;;;;3.63;2.13;;;8.80;99.90;;;;;;5061814;28;20073;-73
2021/03/13 11:33:14;;;;;;;4.47;4.28;;;8.80;99.90;;;;;;5059021;28;20565;-73
2021/03/13 11:35:40;;;;;;;5.82;5.53;;;8.80;99.90;;;;;;5062061;28;20501;-73
2021/03/13 11:38:05;;;;;;;2.53;2.22;;;8.80;99.90;;;;;;5065576;28;20033;-73
2021/03/13 11:40:31;;;;;;;3.15;2.92;;;8.80;99.90;;;;;;5061266;28;20032;-73
2021/03/13 11:42:59;;;;;;;2.28;1.88;;;8.80;99.90;;;;;;5069973;28;20030;-73
2021/03/13 11:45:26;;;;;;;2.55;1.95;;;8.70;99.90;;;;;;5061823;28;20025;-73
2021/03/13 11:47:55;;;;;;;5.28;4.93;;;8.70;99.90;;;;;;5059909;28;20078;-73
2021/03/13 11:50:22;;;;;;;5.80;5.40;;;8.60;99.90;;;;;;5062852;28;20112;-73
2021/03/13 11:52:47;;;;;;;7.85;7.40;;;8.60;99.90;;;;;;5066285;28;20541;-73
2021/03/13 11:55:13;;;;;;;3.97;2.45;;;8.60;99.90;;;;;;5052976;28;20116;-73
2021/03/13 11:57:39;;;;;;;3.83;2.00;;;8.60;99.90;;;;;;5066431;28;20041;-73
2021/03/13 12:00:08;;;;;;;3.42;2.30;;;8.60;99.90;;;;;;5052876;28;20055;-73
2021/03/13 12:02:33;;;;;;;2.65;2.45;;;8.60;99.90;;;;;;5055185;28;20020;-73
2021/03/13 12:04:59;;;;;;;2.50;2.30;;;8.60;99.90;;;;;;5061054;28;20067;-73
2021/03/13 12:07:25;;;;;;;3.45;2.75;;;8.50;99.90;;;;;;5056288;28;20047;-73
2021/03/13 12:09:50;;;;;;;7.10;6.60;;;8.50;99.90;;;;;;5060978;28;20025;-73
2021/03/13 12:12:16;;;;;;;3.80;2.30;;;8.50;99.90;;;;;;5052416;28;20040;-73
2021/03/13 12:14:41;;;;;;;3.13;2.85;;;8.40;99.90;;;;;;5062851;28;20490;-73
2021/03/13 12:17:10;;;;;;;2.88;2.00;;;8.50;99.90;;;;;;5059146;28;20036;-73
2021/03/13 12:19:36;;;;;;;3.17;1.95;;;8.50;99.90;;;;;;5061823;28;20036;-73
2021/03/13 12:22:02;;;;;;;2.40;2.25;;;8.60;99.90;;;;;;5050963;28;20432;-73
2021/03/13 12:24:27;;;;;;;3.30;2.53;;;8.60;99.90;;;;;;5051092;28;20091;-73
2021/03/13 12:26:53;;;;;;;2.92;2.45;;;8.80;99.90;;;;;;5043256;28;20491;-73
2021/03/13 12:29:19;;;;;;;2.72;2.10;;;8.90;99.90;;;;;;5060009;28;20048;-73
2021/03/13 12:31:44;;;;;;;3.55;2.10;;;9.30;99.90;;;;;;5065275;28;20383;-73
2021/03/13 12:34:10;;;;;;;2.63;2.40;;;9.10;99.90;;;;;;5060709;28;20021;-73
2021/03/13 12:36:36;;;;;;;3.50;3.22;;;9.20;99.90;;;;;;5064626;28;20031;-73
2021/03/13 12:39:02;;;;;;;2.13;1.60;;;9.30;99.90;;;;;;5061966;28;20029;-73
2021/03/13 12:41:28;;;;;;;1.90;1.75;;;9.50;99.90;;;;;;5058272;28;20116;-73
2021/03/13 12:43:53;;;;;;;3.70;3.40;;;9.70;99.90;;;;;;5061211;28;20045;-73
2021/03/13 12:46:19;;;;;;;1.83;1.73;;;9.90;99.90;;;;;;5055822;28;20032;-73
2021/03/13 12:48:46;;;;;;;6.43;5.90;;;10.10;99.90;;;;;;5061301;28;20127;-73
2021/03/13 12:51:13;;;;;;;2.03;1.80;;;10.30;99.90;;;;;;5063889;28;20035;-73
2021/03/13 12:53:40;;;;;;;1.75;1.65;;;10.20;99.90;;;;;;5062625;28;20035;-73
2021/03/13 12:56:06;;;;;;;3.10;1.35;;;10.00;99.90;;;;;;5052714;28;20025;-73
2021/03/13 12:58:31;;;;;;;2.60;2.47;;;9.90;99.90;;;;;;5051749;28;20445;-73